Time;durP1;ratioP1;P1;durP2;ratioP2;P2;SDS_P1;SDS_P2;PMS_P1;PMS_P2;Temp;Humidity;BMP_temperature;BMP_pressure;BME280_temperature;BME280_humidity;BME280_pressure;Samples;Min_cycle;Max_cycle;Signal;HPM_P1;HPM_P2
2022/09/12 00:01:24;;;;;;;5.72;3.65;;;23.40;70.80;;;;;;5095441;28;20103;-70
2022/09/12 00:03:54;;;;;;;7.60;3.95;;;23.40;70.80;;;;;;5094118;28;20452;-70
2022/09/12 00:06:25;;;;;;;7.00;3.83;;;23.30;70.80;;;;;;5093981;28;20043;-70
2022/09/12 00:08:53;;;;;;;6.90;3.63;;;23.40;70.90;;;;;;5077695;28;20025;-70
2022/09/12 00:11:18;;;;;;;5.13;3.35;;;23.30;70.80;;;;;;5094052;28;20020;-70
2022/09/12 00:13:44;;;;;;;5.55;3.47;;;23.40;70.80;;;;;;5095320;28;20092;-70
2022/09/12 00:16:18;;;;;;;6.60;3.70;;;23.40;70.80;;;;;;5093670;28;20533;-70
2022/09/12 00:18:45;;;;;;;8.88;4.18;;;23.30;70.80;;;;;;5076502;28;20092;-70
2022/09/12 00:21:11;;;;;;;7.25;3.60;;;23.30;70.80;;;;;;5092945;28;20145;-70
2022/09/12 00:23:36;;;;;;;6.22;3.22;;;23.30;70.80;;;;;;5093300;28;20103;-70
2022/09/12 00:26:04;;;;;;;6.72;4.10;;;23.30;70.80;;;;;;5094511;28;20016;-70
2022/09/12 00:28:30;;;;;;;6.50;3.67;;;23.30;70.80;;;;;;5076470;28;20407;-70
2022/09/12 00:30:56;;;;;;;5.80;3.50;;;23.30;70.90;;;;;;5092872;28;20028;-70
2022/09/12 00:33:21;;;;;;;5.25;3.78;;;23.40;70.90;;;;;;5093094;28;20026;-70
2022/09/12 00:35:49;;;;;;;7.55;4.20;;;23.30;70.80;;;;;;5092914;28;20027;-70
2022/09/12 00:38:15;;;;;;;5.30;3.50;;;23.40;71.00;;;;;;5092947;28;20077;-70
2022/09/12 00:40:41;;;;;;;5.22;3.60;;;23.30;71.00;;;;;;5093243;28;20052;-70
2022/09/12 00:43:29;;;;;;;7.18;3.90;;;23.40;71.00;;;;;;5093875;28;20020;-70
2022/09/12 00:45:56;;;;;;;6.50;3.55;;;23.40;71.00;;;;;;5086607;28;20048;-70
2022/09/12 00:48:26;;;;;;;5.60;3.13;;;23.30;71.00;;;;;;5075627;28;20419;-70
2022/09/12 00:50:52;;;;;;;5.68;3.92;;;23.30;71.00;;;;;;5076256;28;20031;-70
2022/09/12 00:53:17;;;;;;;6.07;3.88;;;23.40;71.00;;;;;;5076047;28;20032;-70
2022/09/12 00:55:44;;;;;;;6.65;3.60;;;23.30;71.00;;;;;;5092645;28;20028;-70
2022/09/12 00:58:19;;;;;;;7.35;3.33;;;23.30;71.00;;;;;;5093833;28;20020;-70
2022/09/12 01:00:46;;;;;;;5.60;3.25;;;23.30;71.10;;;;;;5076193;28;20032;-70
2022/09/12 01:03:13;;;;;;;6.40;3.67;;;23.30;71.00;;;;;;5075598;28;20022;-70
2022/09/12 01:05:43;;;;;;;6.63;3.63;;;23.30;71.00;;;;;;5092402;28;20103;-70
2022/09/12 01:08:08;;;;;;;7.28;3.35;;;23.30;71.00;;;;;;5076001;28;20032;-70
2022/09/12 01:10:34;;;;;;;7.03;3.38;;;23.30;71.00;;;;;;5092398;28;20024;-70
2022/09/12 01:13:02;;;;;;;7.18;3.25;;;23.30;71.10;;;;;;5075616;28;20029;-70
2022/09/12 01:15:28;;;;;;;7.28;3.83;;;23.30;71.10;;;;;;5075565;28;20024;-70
2022/09/12 01:18:02;;;;;;;4.78;2.97;;;23.30;71.10;;;;;;5073023;28;20393;-70
2022/09/12 01:20:35;;;;;;;6.53;3.50;;;23.20;71.00;;;;;;5072878;28;20079;-70
2022/09/12 01:23:12;;;;;;;;;;;23.30;71.20;;;;;;5072444;28;20024;-70
2022/09/12 01:26:06;;;;;;;8.85;3.70;;;23.30;71.20;;;;;;5073246;28;19911;-70
2022/09/12 01:29:09;;;;;;;5.80;3.42;;;23.30;71.10;;;;;;5072875;28;20024;-70
2022/09/12 01:31:46;;;;;;;6.95;3.47;;;23.30;71.10;;;;;;5110169;28;20384;-70
2022/09/12 01:34:53;;;;;;;5.57;3.35;;;23.20;71.20;;;;;;5096069;28;20026;-70
2022/09/12 01:37:25;;;;;;;5.47;3.00;;;23.20;71.20;;;;;;5030734;28;20113;-70
2022/09/12 01:39:54;;;;;;;4.75;3.03;;;23.20;71.30;;;;;;5014375;28;20041;-69
2022/09/12 01:42:53;;;;;;;8.65;3.13;;;23.30;71.50;;;;;;5030757;28;20033;-70
2022/09/12 01:45:25;;;;;;;5.45;2.95;;;23.20;71.30;;;;;;5015985;28;20022;-70
2022/09/12 01:48:07;;;;;;;8.25;3.40;;;23.20;71.40;;;;;;5030454;28;20051;-70
2022/09/12 01:50:34;;;;;;;;;;;23.30;71.40;;;;;;5016601;28;20096;-70
2022/09/12 01:53:27;;;;;;;4.55;2.80;;;23.30;71.40;;;;;;5030615;28;20397;-70
2022/09/12 01:56:09;;;;;;;4.30;2.95;;;23.30;71.50;;;;;;5009599;28;20092;-70
2022/09/12 01:59:04;;;;;;;4.83;2.87;;;23.30;71.50;;;;;;5015441;28;20083;-70
2022/09/12 02:01:33;;;;;;;5.38;3.03;;;23.20;71.40;;;;;;5014928;28;20393;-70
2022/09/12 02:04:07;;;;;;;5.75;3.13;;;23.20;71.50;;;;;;5013885;28;20509;-70
2022/09/12 02:06:39;;;;;;;4.05;2.97;;;23.20;71.40;;;;;;5013830;28;20033;-70
2022/09/12 02:09:37;;;;;;;4.13;2.77;;;23.20;71.40;;;;;;5014185;28;20026;-70
2022/09/12 02:12:03;;;;;;;4.68;2.95;;;23.20;71.40;;;;;;5006806;28;20040;-70
2022/09/12 02:14:31;;;;;;;5.95;3.00;;;23.20;71.40;;;;;;5071001;28;20031;-70
2022/09/12 02:17:21;;;;;;;5.13;3.15;;;23.20;71.40;;;;;;5070732;28;20555;-70
2022/09/12 02:19:56;;;;;;;7.30;3.15;;;23.20;71.40;;;;;;5071096;28;20040;-70
2022/09/12 02:22:24;;;;;;;5.50;2.90;;;23.20;71.40;;;;;;5070779;28;20467;-70
2022/09/12 02:24:52;;;;;;;4.43;3.10;;;23.20;71.40;;;;;;5071129;28;20496;-70
2022/09/12 02:27:23;;;;;;;5.32;3.35;;;23.20;71.40;;;;;;5077642;28;20031;-70
2022/09/12 02:29:48;;;;;;;4.30;2.78;;;23.20;71.40;;;;;;5078934;28;20050;-70
2022/09/12 02:32:27;;;;;;;5.00;3.25;;;23.20;71.40;;;;;;5111667;28;20084;-70
2022/09/12 02:35:06;;;;;;;5.10;3.38;;;23.20;71.40;;;;;;5112095;28;20069;-70
2022/09/12 02:37:48;;;;;;;6.22;3.15;;;23.20;71.50;;;;;;5112077;28;20023;-70
2022/09/12 02:40:14;;;;;;;;;;;23.20;71.40;;;;;;5112552;28;20542;-70
2022/09/12 02:42:39;;;;;;;5.38;3.17;;;23.20;71.40;;;;;;5112029;28;19990;-70
2022/09/12 02:45:06;;;;;;;4.22;2.95;;;23.20;71.50;;;;;;5090430;28;20108;-70
2022/09/12 02:47:35;;;;;;;5.20;3.10;;;23.20;71.40;;;;;;5091254;28;20099;-70
2022/09/12 02:50:01;;;;;;;6.45;3.08;;;23.20;71.50;;;;;;5075073;28;20358;-70
2022/09/12 02:52:27;;;;;;;4.15;2.83;;;23.20;71.50;;;;;;5074481;28;20020;-70
2022/09/12 02:54:52;;;;;;;5.90;3.28;;;23.20;71.50;;;;;;5074929;28;20521;-70
2022/09/12 02:57:19;;;;;;;5.85;2.92;;;23.20;71.50;;;;;;5091453;28;20024;-70
2022/09/12 02:59:45;;;;;;;4.25;2.95;;;23.20;71.50;;;;;;5092720;28;20123;-70
2022/09/12 03:02:34;;;;;;;7.10;3.08;;;23.20;71.50;;;;;;5092359;28;20056;-70
2022/09/12 03:05:14;;;;;;;5.47;2.85;;;23.20;71.40;;;;;;5092769;28;20028;-70
2022/09/12 03:07:49;;;;;;;6.55;2.85;;;23.20;71.50;;;;;;5092619;28;20488;-70
2022/09/12 03:10:31;;;;;;;3.55;2.90;;;23.20;71.50;;;;;;5094462;28;20044;-70
2022/09/12 03:13:06;;;;;;;5.43;2.83;;;23.20;71.50;;;;;;5095368;28;20073;-70
2022/09/12 03:15:41;;;;;;;3.92;2.50;;;23.20;71.50;;;;;;5095856;28;20089;-70
2022/09/12 03:18:18;;;;;;;8.27;3.38;;;23.20;71.50;;;;;;5096576;28;20016;-70
2022/09/12 03:21:19;;;;;;;6.43;2.78;;;23.20;71.50;;;;;;5096376;28;20510;-70
2022/09/12 03:24:06;;;;;;;6.35;3.33;;;23.20;71.50;;;;;;5033730;28;20502;-70
2022/09/12 03:27:01;;;;;;;3.88;2.80;;;23.20;71.60;;;;;;5019317;28;20055;-70
2022/09/12 03:29:26;;;;;;;3.17;2.30;;;23.20;71.50;;;;;;5019011;28;20532;-70
2022/09/12 03:31:56;;;;;;;4.45;2.72;;;23.20;71.60;;;;;;5037096;28;20037;-70
2022/09/12 03:34:22;;;;;;;5.50;2.97;;;23.20;71.50;;;;;;5036816;28;20068;-70
2022/09/12 03:36:48;;;;;;;6.60;3.28;;;23.20;71.50;;;;;;5037050;28;20099;-70
2022/09/12 03:39:14;;;;;;;5.82;3.08;;;23.20;71.50;;;;;;5036514;28;20064;-70
2022/09/12 03:41:39;;;;;;;2.90;2.45;;;23.20;71.60;;;;;;5053316;28;20122;-70
2022/09/12 03:44:05;;;;;;;3.20;2.53;;;23.20;71.60;;;;;;5036759;28;20067;-70
2022/09/12 03:46:31;;;;;;;4.22;2.55;;;23.20;71.50;;;;;;5052954;28;20497;-70
2022/09/12 03:48:56;;;;;;;3.97;2.30;;;23.20;71.60;;;;;;5053287;28;20481;-70
2022/09/12 03:51:22;;;;;;;7.47;2.92;;;23.20;71.60;;;;;;5034151;28;20112;-70
2022/09/12 03:53:48;;;;;;;5.15;2.78;;;23.20;71.60;;;;;;5033151;28;20026;-70
2022/09/12 03:56:13;;;;;;;4.35;2.53;;;23.20;71.60;;;;;;5033411;28;20033;-70
2022/09/12 03:58:39;;;;;;;5.07;2.95;;;23.10;71.50;;;;;;5032801;28;20025;-70
2022/09/12 04:01:11;;;;;;;4.60;2.90;;;23.10;71.50;;;;;;5070191;28;20055;-70
2022/09/12 04:03:41;;;;;;;4.97;2.78;;;23.10;71.60;;;;;;5057832;28;20024;-70
2022/09/12 04:06:07;;;;;;;4.32;2.53;;;23.20;71.60;;;;;;5075421;28;20479;-70
2022/09/12 04:08:34;;;;;;;5.55;2.45;;;23.10;71.50;;;;;;5057425;28;20036;-70
2022/09/12 04:11:10;;;;;;;3.97;2.17;;;23.10;71.50;;;;;;5073801;28;20025;-70
2022/09/12 04:13:37;;;;;;;3.67;2.53;;;23.10;71.50;;;;;;5073491;28;20464;-70
2022/09/12 04:16:03;;;;;;;5.68;2.67;;;23.10;71.60;;;;;;5078546;28;20024;-70
2022/09/12 04:18:29;;;;;;;5.03;2.72;;;23.10;71.50;;;;;;5093932;28;20109;-70
2022/09/12 04:20:54;;;;;;;3.05;2.33;;;23.10;71.50;;;;;;5095168;28;20055;-70
2022/09/12 04:23:20;;;;;;;5.38;2.47;;;23.10;71.60;;;;;;5095191;28;20073;-70
2022/09/12 04:25:57;;;;;;;3.92;2.72;;;23.10;71.60;;;;;;5095164;28;20028;-70
2022/09/12 04:28:23;;;;;;;4.47;3.15;;;23.10;71.50;;;;;;5076848;28;20024;-70
2022/09/12 04:30:49;;;;;;;5.20;2.50;;;23.10;71.60;;;;;;5089145;28;20016;-70
2022/09/12 04:33:14;;;;;;;3.45;2.50;;;23.10;71.60;;;;;;5115231;28;20027;-70
2022/09/12 04:35:40;;;;;;;5.60;2.47;;;23.10;71.60;;;;;;5115232;28;20023;-70
2022/09/12 04:38:06;;;;;;;3.35;2.53;;;23.10;71.60;;;;;;5115441;28;20020;-70
2022/09/12 04:40:32;;;;;;;2.97;2.40;;;23.10;71.60;;;;;;5113761;28;20100;-70
2022/09/12 04:42:58;;;;;;;3.22;2.42;;;23.10;71.60;;;;;;5096816;28;20024;-70
2022/09/12 04:45:24;;;;;;;6.40;2.80;;;23.10;71.60;;;;;;5096658;28;20141;-70
2022/09/12 04:47:49;;;;;;;2.67;2.45;;;23.10;71.60;;;;;;5113464;28;20081;-69
2022/09/12 04:50:15;;;;;;;2.75;2.38;;;23.10;71.60;;;;;;5114995;28;20032;-70
2022/09/12 04:52:41;;;;;;;4.00;2.30;;;23.10;71.70;;;;;;5115016;28;20020;-70
2022/09/12 04:55:07;;;;;;;3.40;2.35;;;23.10;71.70;;;;;;5113601;28;20031;-70
2022/09/12 04:57:33;;;;;;;4.03;2.20;;;23.10;71.60;;;;;;5114482;28;20016;-69
2022/09/12 05:00:00;;;;;;;3.78;2.60;;;23.10;71.70;;;;;;5113443;28;20032;-70
2022/09/12 05:02:25;;;;;;;4.00;2.20;;;23.10;71.70;;;;;;5114791;28;20034;-70
2022/09/12 05:04:51;;;;;;;5.07;2.80;;;23.10;71.60;;;;;;5113384;28;20110;-68
2022/09/12 05:07:18;;;;;;;3.63;2.28;;;23.10;71.70;;;;;;5114544;28;20039;-69
2022/09/12 05:09:44;;;;;;;2.60;1.33;;;23.10;71.60;;;;;;5112775;28;20133;-69
2022/09/12 05:12:10;;;;;;;1.60;1.45;;;23.10;69.90;;;;;;5108163;28;20023;-69
2022/09/12 05:14:35;;;;;;;2.97;1.40;;;23.00;69.80;;;;;;5094039;28;20024;-69
2022/09/12 05:17:01;;;;;;;4.03;1.40;;;23.00;70.00;;;;;;5091053;28;20028;-69
2022/09/12 05:19:28;;;;;;;4.72;1.40;;;23.00;69.40;;;;;;5093682;28;20024;-69
2022/09/12 05:21:53;;;;;;;2.00;1.23;;;23.00;69.40;;;;;;5092508;28;20024;-69
2022/09/12 05:24:19;;;;;;;1.67;1.38;;;23.00;69.60;;;;;;5093514;28;20391;-69
2022/09/12 05:26:44;;;;;;;2.05;1.60;;;23.00;69.40;;;;;;5093323;28;20406;-69
2022/09/12 05:29:11;;;;;;;2.25;1.50;;;23.00;69.70;;;;;;5093877;28;20051;-69
2022/09/12 05:31:38;;;;;;;1.95;1.50;;;22.90;69.20;;;;;;5093491;28;20017;-69
2022/09/12 05:34:05;;;;;;;3.17;1.52;;;23.00;69.10;;;;;;5093099;28;20016;-68
2022/09/12 05:36:31;;;;;;;1.70;1.33;;;22.90;69.10;;;;;;5091855;28;20016;-69
2022/09/12 05:38:58;;;;;;;2.22;1.52;;;22.90;69.10;;;;;;5092104;28;20356;-69
2022/09/12 05:41:25;;;;;;;3.03;1.75;;;22.90;69.20;;;;;;5091779;28;20089;-69
2022/09/12 05:43:55;;;;;;;2.05;1.42;;;22.90;69.20;;;;;;5091967;28;20089;-69
2022/09/12 05:46:22;;;;;;;1.50;1.30;;;22.90;69.10;;;;;;5091981;28;20422;-69
2022/09/12 05:48:48;;;;;;;2.28;1.30;;;22.90;69.00;;;;;;5075300;28;20051;-69
2022/09/12 05:51:22;;;;;;;2.10;1.20;;;22.90;69.00;;;;;;5092284;28;20069;-69
2022/09/12 05:53:58;;;;;;;4.20;1.67;;;22.90;68.90;;;;;;5091828;28;20030;-69
2022/09/12 05:56:26;;;;;;;2.10;1.40;;;22.90;69.10;;;;;;5093226;28;20035;-69
2022/09/12 05:59:16;;;;;;;1.60;1.20;;;22.90;68.90;;;;;;5091724;28;20047;-69
2022/09/12 06:01:42;;;;;;;1.60;1.48;;;22.90;68.90;;;;;;5081272;28;20032;-69
2022/09/12 06:04:07;;;;;;;2.50;1.38;;;22.90;69.10;;;;;;5092718;28;20030;-69
2022/09/12 06:06:43;;;;;;;4.68;1.20;;;22.90;65.40;;;;;;5091349;28;20024;-69
2022/09/12 06:09:10;;;;;;;6.10;1.50;;;22.70;65.50;;;;;;5091201;28;20020;-69
2022/09/12 06:11:36;;;;;;;3.80;1.50;;;22.60;62.90;;;;;;5091287;28;20059;-69
2022/09/12 06:14:02;;;;;;;5.55;1.83;;;22.50;63.50;;;;;;5074705;28;20025;-69
2022/09/12 06:16:31;;;;;;;2.80;1.27;;;22.40;62.80;;;;;;5082828;28;20024;-69
2022/09/12 06:18:59;;;;;;;1.75;1.40;;;22.40;62.80;;;;;;5082192;28;20069;-69
2022/09/12 06:21:25;;;;;;;5.85;1.40;;;22.30;62.60;;;;;;5092534;28;20020;-69
2022/09/12 06:23:52;;;;;;;4.55;1.65;;;22.30;62.30;;;;;;5091097;28;20151;-69
2022/09/12 06:26:22;;;;;;;2.38;1.23;;;22.30;62.90;;;;;;5074857;28;20021;-69
2022/09/12 06:28:47;;;;;;;4.22;1.50;;;22.20;62.70;;;;;;5074830;28;20029;-69
2022/09/12 06:31:15;;;;;;;2.72;1.52;;;22.20;62.70;;;;;;5092228;28;20772;-69
2022/09/12 06:33:42;;;;;;;4.20;1.35;;;22.20;63.40;;;;;;5092276;28;20020;-69
2022/09/12 06:36:12;;;;;;;4.20;1.50;;;22.20;63.20;;;;;;5091109;28;20476;-69
2022/09/12 06:38:38;;;;;;;4.60;1.35;;;22.10;63.00;;;;;;5074155;28;20442;-69
2022/09/12 06:41:09;;;;;;;3.65;1.13;;;22.10;63.10;;;;;;5092042;28;20477;-69
2022/09/12 06:43:35;;;;;;;3.97;1.30;;;22.10;63.00;;;;;;5074378;28;20024;-69
2022/09/12 06:46:01;;;;;;;3.08;1.30;;;22.10;63.00;;;;;;5093966;28;20077;-68
2022/09/12 06:48:27;;;;;;;4.85;1.40;;;22.10;63.30;;;;;;5096160;28;20105;-68
2022/09/12 06:51:00;;;;;;;20.17;3.22;;;22.00;63.00;;;;;;5094897;28;20488;-69
2022/09/12 06:53:26;;;;;;;18.52;4.10;;;22.00;63.30;;;;;;5094657;28;20024;-69
2022/09/12 06:55:59;;;;;;;11.13;2.65;;;22.00;63.50;;;;;;5093700;28;20024;-69
2022/09/12 06:58:25;;;;;;;11.60;2.60;;;22.00;63.50;;;;;;5096219;28;20050;-69
2022/09/12 07:00:51;;;;;;;11.23;2.20;;;22.00;63.30;;;;;;5094862;28;20067;-69
2022/09/12 07:03:17;;;;;;;11.32;2.35;;;21.90;63.50;;;;;;5077236;28;20036;-69
2022/09/12 07:05:43;;;;;;;12.18;2.33;;;21.90;63.50;;;;;;5095796;28;20030;-69
2022/09/12 07:08:09;;;;;;;12.65;2.00;;;21.90;63.30;;;;;;5095852;28;20020;-69
2022/09/12 07:10:35;;;;;;;8.93;2.10;;;21.90;63.40;;;;;;5096016;28;20035;-69
2022/09/12 07:13:00;;;;;;;8.40;2.10;;;21.90;63.30;;;;;;5095744;28;20020;-69
2022/09/12 07:15:26;;;;;;;7.85;1.85;;;21.90;63.20;;;;;;5095963;28;20090;-69
2022/09/12 07:17:51;;;;;;;5.03;1.90;;;21.90;63.30;;;;;;5074292;28;20569;-69
2022/09/12 07:20:17;;;;;;;13.93;2.10;;;21.90;63.60;;;;;;5074204;28;20024;-69
2022/09/12 07:22:43;;;;;;;14.80;1.80;;;21.90;63.30;;;;;;5073664;28;20492;-69
2022/09/12 07:25:08;;;;;;;9.85;3.38;;;21.90;63.90;;;;;;5074425;28;20025;-69
2022/09/12 07:27:36;;;;;;;8.18;2.75;;;21.90;63.70;;;;;;5075491;28;20021;-69
2022/09/12 07:30:03;;;;;;;6.72;2.08;;;21.90;64.10;;;;;;5086157;28;20103;-69
2022/09/12 07:32:29;;;;;;;8.68;2.08;;;21.90;64.40;;;;;;5116082;28;20024;-69
2022/09/12 07:34:54;;;;;;;7.82;2.00;;;21.90;64.30;;;;;;5115763;28;20028;-69
2022/09/12 07:37:20;;;;;;;7.65;2.20;;;21.90;64.70;;;;;;5114531;28;20076;-69
2022/09/12 07:39:46;;;;;;;5.50;1.90;;;21.90;64.90;;;;;;5114334;28;20096;-69
2022/09/12 07:42:12;;;;;;;9.10;2.40;;;21.90;64.90;;;;;;5115753;28;20024;-69
2022/09/12 07:44:37;;;;;;;4.32;2.05;;;21.90;65.10;;;;;;5114509;28;20059;-69
2022/09/12 07:47:03;;;;;;;5.40;1.85;;;21.90;65.20;;;;;;5115376;28;20391;-69
2022/09/12 07:49:29;;;;;;;7.70;2.42;;;21.90;65.20;;;;;;5113531;28;20453;-69
2022/09/12 07:51:55;;;;;;;5.55;2.05;;;21.90;65.30;;;;;;5107697;28;20449;-69
2022/09/12 07:54:21;;;;;;;8.80;1.85;;;21.90;65.20;;;;;;5105045;28;20095;-69
2022/09/12 07:56:47;;;;;;;4.95;1.85;;;21.90;65.20;;;;;;5097684;28;20111;-69
2022/09/12 07:59:12;;;;;;;5.50;1.58;;;21.90;65.30;;;;;;5093749;28;20103;-69
2022/09/12 08:01:39;;;;;;;11.43;2.10;;;21.90;65.50;;;;;;5112288;28;20165;-69
2022/09/12 08:04:04;;;;;;;6.07;1.83;;;21.90;65.30;;;;;;5114176;28;20027;-69
2022/09/12 08:06:30;;;;;;;5.93;1.73;;;21.90;65.20;;;;;;5113800;28;20031;-69
2022/09/12 08:08:57;;;;;;;4.75;1.73;;;21.90;65.30;;;;;;5104419;28;20024;-69
2022/09/12 08:11:23;;;;;;;5.32;1.65;;;21.90;65.20;;;;;;5075864;28;20019;-69
2022/09/12 08:13:50;;;;;;;7.15;1.60;;;21.90;65.00;;;;;;5093451;28;20024;-69
2022/09/12 08:16:19;;;;;;;6.10;1.27;;;21.90;64.90;;;;;;5085674;28;20040;-69
2022/09/12 08:18:45;;;;;;;6.38;1.30;;;21.90;64.70;;;;;;5072229;28;20020;-69
2022/09/12 08:21:16;;;;;;;3.97;1.73;;;21.90;64.70;;;;;;5055151;28;20126;-69
2022/09/12 08:23:42;;;;;;;7.30;1.50;;;21.90;65.00;;;;;;5071986;28;20024;-69
2022/09/12 08:26:08;;;;;;;3.35;1.33;;;21.90;65.00;;;;;;5083882;28;20460;-69
2022/09/12 08:28:34;;;;;;;4.65;1.60;;;22.00;65.20;;;;;;5093314;28;20029;-69
2022/09/12 08:31:04;;;;;;;4.45;1.42;;;22.00;65.40;;;;;;5093238;28;20032;-69
2022/09/12 08:33:33;;;;;;;2.55;1.50;;;22.00;65.70;;;;;;5092146;28;20068;-69
2022/09/12 08:36:06;;;;;;;3.35;1.35;;;22.00;65.80;;;;;;5075465;28;20024;-69
2022/09/12 08:38:33;;;;;;;4.85;1.60;;;22.00;66.10;;;;;;5075342;28;20119;-69
2022/09/12 08:41:19;;;;;;;3.60;1.50;;;22.00;66.10;;;;;;5075168;28;20416;-69
2022/09/12 08:43:58;;;;;;;2.67;1.50;;;22.00;66.30;;;;;;5082248;28;20040;-69
2022/09/12 08:46:34;;;;;;;2.63;1.38;;;22.00;66.70;;;;;;5075919;28;20074;-69
2022/09/12 08:49:00;;;;;;;4.97;1.60;;;22.00;66.70;;;;;;5032093;28;1266032;-69
2022/09/12 08:51:26;;;;;;;4.05;1.40;;;22.00;66.70;;;;;;5071369;28;20260;-69
2022/09/12 08:53:53;;;;;;;3.53;1.45;;;22.00;66.60;;;;;;5072490;28;20020;-69
2022/09/12 08:56:19;;;;;;;2.40;1.33;;;22.00;66.70;;;;;;5072551;28;20104;-69
2022/09/12 08:58:44;;;;;;;4.03;1.55;;;22.10;66.70;;;;;;5073748;28;20103;-69
2022/09/12 09:01:23;;;;;;;3.92;1.40;;;22.10;66.70;;;;;;5108282;28;20149;-69
2022/09/12 09:04:07;;;;;;;6.63;1.45;;;22.10;66.70;;;;;;5097009;28;20035;-69
2022/09/12 09:06:46;;;;;;;3.63;1.17;;;22.10;66.40;;;;;;5112750;28;20031;-69
2022/09/12 09:09:21;;;;;;;2.50;1.13;;;22.10;66.20;;;;;;5113364;28;20016;-69
2022/09/12 09:11:53;;;;;;;6.43;1.50;;;22.10;66.20;;;;;;5113974;28;20028;-69
2022/09/12 09:15:04;;;;;;;4.30;1.50;;;22.10;65.90;;;;;;5114041;28;20023;-69
2022/09/12 09:17:45;;;;;;;6.70;1.35;;;22.10;66.10;;;;;;5105324;28;20039;-69
2022/09/12 09:20:35;;;;;;;3.55;1.20;;;22.10;66.10;;;;;;5114244;28;20027;-69
2022/09/12 09:23:02;;;;;;;3.03;1.45;;;22.10;66.20;;;;;;5096159;28;20491;-69
2022/09/12 09:25:38;;;;;;;4.68;1.20;;;22.10;66.20;;;;;;5112664;28;20562;-69
2022/09/12 09:28:25;;;;;;;2.35;1.38;;;22.20;66.20;;;;;;5112516;28;20495;-69
2022/09/12 09:30:51;;;;;;;1.48;1.00;;;22.10;66.20;;;;;;5101785;28;20032;-69
2022/09/12 09:33:25;;;;;;;3.58;1.23;;;22.20;66.10;;;;;;5112077;28;20076;-69
2022/09/12 09:35:55;;;;;;;2.13;1.35;;;22.10;66.10;;;;;;5112232;28;20479;-69
2022/09/12 09:38:23;;;;;;;4.63;1.50;;;22.10;66.10;;;;;;5095517;28;20023;-69
2022/09/12 09:40:58;;;;;;;4.10;1.20;;;22.20;66.20;;;;;;5112371;28;20096;-69
2022/09/12 09:43:27;;;;;;;2.33;0.93;;;22.20;66.20;;;;;;5113546;28;20455;-69
2022/09/12 09:45:53;;;;;;;1.20;1.13;;;22.20;66.20;;;;;;5095783;28;20023;-69
2022/09/12 09:48:40;;;;;;;2.10;0.93;;;22.20;66.20;;;;;;5111644;28;20057;-69
2022/09/12 09:51:06;;;;;;;1.67;0.88;;;22.20;66.30;;;;;;5091320;28;20038;-69
2022/09/12 09:53:52;;;;;;;2.40;1.00;;;22.20;66.40;;;;;;5071630;28;20024;-69
2022/09/12 09:56:24;;;;;;;4.45;1.10;;;22.20;66.50;;;;;;5071459;28;20024;-69
2022/09/12 09:58:50;;;;;;;2.90;1.48;;;22.30;66.30;;;;;;5072703;28;20017;-69
2022/09/12 10:01:18;;;;;;;4.97;1.05;;;22.20;66.00;;;;;;5109691;28;20064;-69
2022/09/12 10:03:54;;;;;;;2.78;0.80;;;22.30;65.90;;;;;;5112132;28;20024;-69
2022/09/12 10:06:21;;;;;;;1.65;1.10;;;22.30;65.90;;;;;;5095159;28;20041;-69
2022/09/12 10:08:47;;;;;;;3.03;1.08;;;22.30;66.00;;;;;;5111825;28;20025;-69
2022/09/12 10:11:19;;;;;;;4.43;1.00;;;22.30;66.00;;;;;;5112828;28;20020;-69
2022/09/12 10:13:56;;;;;;;1.83;0.70;;;22.30;66.00;;;;;;5111699;28;20486;-69
2022/09/12 10:16:23;;;;;;;2.42;1.10;;;22.30;66.00;;;;;;5112776;28;20023;-69
2022/09/12 10:18:49;;;;;;;0.70;0.70;;;22.30;66.00;;;;;;5111778;28;20030;-69
2022/09/12 10:21:46;;;;;;;2.13;0.90;;;22.30;65.90;;;;;;5094962;28;20030;-69
2022/09/12 10:24:22;;;;;;;2.75;0.98;;;22.30;65.90;;;;;;5111645;28;20023;-69
2022/09/12 10:27:04;;;;;;;5.40;1.38;;;22.30;65.70;;;;;;5111802;28;20024;-69
2022/09/12 10:29:31;;;;;;;2.88;0.93;;;22.40;65.80;;;;;;5095983;28;20131;-69
2022/09/12 10:31:58;;;;;;;1.67;1.05;;;22.40;65.70;;;;;;5094440;28;20026;-69
2022/09/12 10:34:27;;;;;;;1.25;0.90;;;22.40;65.80;;;;;;5094698;28;20043;-69
2022/09/12 10:37:09;;;;;;;1.30;0.88;;;22.40;66.00;;;;;;5094981;28;20024;-69
2022/09/12 10:39:36;;;;;;;3.43;1.00;;;22.40;66.20;;;;;;5095333;28;20121;-69
2022/09/12 10:42:04;;;;;;;1.92;0.80;;;22.40;66.40;;;;;;5094816;28;20261;-69
2022/09/12 10:44:31;;;;;;;3.53;1.05;;;22.50;66.60;;;;;;5094635;28;20028;-69
2022/09/12 10:46:57;;;;;;;2.00;1.20;;;22.50;66.70;;;;;;5112442;28;20032;-69
2022/09/12 10:49:28;;;;;;;2.63;0.88;;;22.50;66.70;;;;;;5112515;28;20043;-69
2022/09/12 10:51:54;;;;;;;1.75;0.77;;;22.50;66.70;;;;;;5077461;28;20037;-69
2022/09/12 10:54:23;;;;;;;1.98;0.88;;;22.50;66.80;;;;;;5070808;28;20488;-69
2022/09/12 10:57:03;;;;;;;2.97;0.70;;;22.60;67.00;;;;;;5071066;28;20083;-69
2022/09/12 10:59:43;;;;;;;3.80;0.80;;;22.60;66.80;;;;;;5079601;28;20023;-69
2022/09/12 11:02:21;;;;;;;1.23;0.80;;;22.60;66.90;;;;;;5112473;28;20061;-69
2022/09/12 11:05:06;;;;;;;0.70;0.70;;;22.60;67.00;;;;;;5112447;28;20098;-69
2022/09/12 11:07:31;;;;;;;0.82;0.70;;;22.60;67.00;;;;;;5112647;28;20024;-69
2022/09/12 11:10:27;;;;;;;1.80;1.00;;;22.60;66.90;;;;;;5112569;28;20019;-69
2022/09/12 11:13:26;;;;;;;1.88;1.00;;;22.70;67.00;;;;;;5112488;28;20024;-69
2022/09/12 11:16:15;;;;;;;3.58;1.00;;;22.70;67.00;;;;;;5112347;28;20020;-69
2022/09/12 11:18:56;;;;;;;2.55;0.90;;;22.70;67.00;;;;;;5101354;28;20028;-69
2022/09/12 11:21:56;;;;;;;6.65;1.20;;;22.70;67.00;;;;;;5111362;28;20023;-69
2022/09/12 11:24:22;;;;;;;2.70;1.10;;;22.70;66.90;;;;;;5112098;28;20077;-69
2022/09/12 11:27:02;;;;;;;1.77;0.80;;;22.70;67.00;;;;;;5112318;28;20016;-69
2022/09/12 11:30:09;;;;;;;2.97;0.80;;;22.80;67.00;;;;;;5112086;28;20015;-69
2022/09/12 11:32:44;;;;;;;2.53;1.10;;;22.80;67.10;;;;;;5102150;28;20099;-69
2022/09/12 11:35:17;;;;;;;2.60;0.90;;;22.80;67.00;;;;;;5116010;28;20023;-69
2022/09/12 11:37:45;;;;;;;1.65;0.82;;;22.80;66.90;;;;;;5114708;28;20030;-69
2022/09/12 11:40:36;;;;;;;0.85;0.80;;;22.80;66.90;;;;;;5114780;28;20027;-69
2022/09/12 11:43:30;;;;;;;4.25;0.85;;;22.80;66.90;;;;;;5114372;28;20026;-69
2022/09/12 11:45:56;;;;;;;1.60;0.95;;;22.90;66.90;;;;;;5115912;28;20054;-69
2022/09/12 11:48:28;;;;;;;2.88;0.80;;;22.90;67.00;;;;;;5114084;28;20042;-69
2022/09/12 11:50:53;;;;;;;1.10;0.80;;;22.90;67.00;;;;;;5115179;28;20055;-69
2022/09/12 11:53:25;;;;;;;1.50;0.80;;;22.90;67.00;;;;;;5073860;28;20059;-69
2022/09/12 11:56:08;;;;;;;0.85;0.77;;;22.90;67.10;;;;;;5073795;28;20016;-69
2022/09/12 11:58:35;;;;;;;1.45;0.80;;;22.90;67.00;;;;;;5073665;28;20100;-69
2022/09/12 12:01:16;;;;;;;1.25;0.80;;;22.90;67.20;;;;;;5107097;28;20022;-69
2022/09/12 12:03:43;;;;;;;2.75;0.77;;;22.90;67.20;;;;;;5114272;28;20064;-69
2022/09/12 12:06:20;;;;;;;0.88;0.82;;;23.00;67.20;;;;;;5114302;28;20020;-69
2022/09/12 12:08:46;;;;;;;4.30;0.88;;;23.00;67.10;;;;;;5114145;28;20072;-69
2022/09/12 12:11:14;;;;;;;1.08;0.82;;;23.00;67.20;;;;;;5097081;28;20038;-69
2022/09/12 12:14:12;;;;;;;1.55;0.82;;;23.00;67.10;;;;;;5097028;28;20019;-69
2022/09/12 12:16:39;;;;;;;1.40;0.80;;;23.00;67.10;;;;;;5113923;28;20041;-69
2022/09/12 12:19:25;;;;;;;2.55;0.80;;;23.00;67.10;;;;;;5097036;28;20072;-69
2022/09/12 12:21:50;;;;;;;0.75;0.70;;;23.00;67.20;;;;;;5114666;28;20039;-69
2022/09/12 12:24:20;;;;;;;2.80;0.93;;;23.00;67.20;;;;;;5096853;28;20027;-69
2022/09/12 12:27:21;;;;;;;2.67;0.95;;;23.10;67.20;;;;;;5096788;28;20027;-69
2022/09/12 12:29:47;;;;;;;2.08;0.90;;;23.10;67.10;;;;;;5100410;28;20070;-69
2022/09/12 12:32:16;;;;;;;1.15;0.80;;;23.10;68.10;;;;;;5113621;28;20043;-69
2022/09/12 12:34:42;;;;;;;0.73;0.60;;;23.10;67.10;;;;;;5115003;28;20395;-69
2022/09/12 12:37:20;;;;;;;2.00;0.80;;;23.10;67.00;;;;;;5096584;28;20054;-69
2022/09/12 12:39:50;;;;;;;1.75;0.70;;;23.10;67.00;;;;;;5114689;28;20034;-69
2022/09/12 12:42:31;;;;;;;1.58;0.80;;;23.20;67.10;;;;;;5113294;28;20115;-69
2022/09/12 12:44:58;;;;;;;1.00;0.90;;;23.10;66.90;;;;;;5114612;28;20032;-69
2022/09/12 12:47:41;;;;;;;1.13;0.60;;;23.20;67.00;;;;;;5113126;28;20026;-69
2022/09/12 12:50:20;;;;;;;1.23;0.80;;;23.20;66.90;;;;;;5113365;28;20097;-69
2022/09/12 12:52:59;;;;;;;4.45;0.95;;;23.20;66.80;;;;;;5082726;28;20025;-70
2022/09/12 12:55:36;;;;;;;0.93;0.75;;;23.20;66.80;;;;;;5073611;28;20070;-69
2022/09/12 12:58:02;;;;;;;0.90;0.70;;;23.20;66.70;;;;;;5072892;28;20056;-69
2022/09/12 13:00:31;;;;;;;1.38;0.80;;;23.20;66.70;;;;;;5096283;28;20572;-69
2022/09/12 13:03:05;;;;;;;2.85;0.70;;;23.20;66.60;;;;;;5113236;28;20024;-69
2022/09/12 13:05:48;;;;;;;2.40;0.65;;;23.30;66.70;;;;;;5114216;28;20073;-69
2022/09/12 13:08:16;;;;;;;1.17;0.60;;;23.30;66.60;;;;;;5096949;28;20028;-69
2022/09/12 13:10:50;;;;;;;1.95;0.90;;;23.30;66.60;;;;;;5113990;28;20020;-70